Time;durP1;ratioP1;P1;durP2;ratioP2;P2;SDS_P1;SDS_P2;PMS_P1;PMS_P2;Temp;Humidity;BMP_temperature;BMP_pressure;BME280_temperature;BME280_humidity;BME280_pressure;Samples;Min_cycle;Max_cycle;Signal;HPM_P1;HPM_P2
2021/03/22 00:00:56;;;;;;;30.17;5.95;;;9.20;99.90;;;;;;1848745;76;21794;-72
2021/03/22 00:03:25;;;;;;;28.65;5.35;;;9.20;99.90;;;;;;1848302;76;21214;-70
2021/03/22 00:05:54;;;;;;;28.80;5.62;;;9.20;99.90;;;;;;1851657;76;21121;-70
2021/03/22 00:08:23;;;;;;;41.08;5.85;;;9.20;99.90;;;;;;1849472;76;21101;-70
2021/03/22 00:10:51;;;;;;;30.10;5.50;;;9.20;99.90;;;;;;1848746;76;21208;-70
2021/03/22 00:13:21;;;;;;;29.90;5.55;;;9.20;99.90;;;;;;1848640;76;21166;-71
2021/03/22 00:15:50;;;;;;;30.17;5.58;;;9.20;99.90;;;;;;1848471;76;21136;-70
2021/03/22 00:18:21;;;;;;;34.23;5.72;;;9.20;99.90;;;;;;1846945;76;21108;-70
2021/03/22 00:20:48;;;;;;;27.40;4.83;;;9.20;99.90;;;;;;1847283;76;21355;-70
2021/03/22 00:23:17;;;;;;;30.43;5.17;;;9.20;99.90;;;;;;1848314;76;21559;-71
2021/03/22 00:25:44;;;;;;;40.15;5.72;;;9.20;99.90;;;;;;1845142;76;21106;-71
2021/03/22 00:28:13;;;;;;;30.52;4.75;;;9.20;99.90;;;;;;1850838;76;21192;-70
2021/03/22 00:30:43;;;;;;;33.90;5.85;;;9.20;99.90;;;;;;1846432;76;21141;-71
2021/03/22 00:33:12;;;;;;;35.95;5.47;;;9.20;99.90;;;;;;1848018;76;21538;-70
2021/03/22 00:35:40;;;;;;;37.38;5.95;;;9.20;99.90;;;;;;1848570;76;21226;-71
2021/03/22 00:38:09;;;;;;;28.80;5.20;;;9.20;99.90;;;;;;1849828;76;21148;-71
2021/03/22 00:40:39;;;;;;;28.25;4.83;;;9.20;99.90;;;;;;1848873;76;21253;-70
2021/03/22 00:43:08;;;;;;;34.83;5.70;;;9.20;99.90;;;;;;1848183;76;21214;-70
2021/03/22 00:45:35;;;;;;;37.03;5.85;;;9.20;99.90;;;;;;1847934;76;21127;-71
2021/03/22 00:48:03;;;;;;;33.45;5.25;;;9.20;99.90;;;;;;1849156;76;21071;-71
2021/03/22 00:50:40;;;;;;;31.12;5.95;;;9.20;99.90;;;;;;1846093;76;21120;-70
2021/03/22 00:53:27;;;;;;;35.15;5.95;;;9.20;99.90;;;;;;1847476;76;21142;-70
2021/03/22 00:55:54;;;;;;;33.30;6.40;;;9.20;99.90;;;;;;1845188;77;21240;-71
2021/03/22 00:58:22;;;;;;;29.82;5.45;;;9.20;99.90;;;;;;1840623;77;21044;-71
2021/03/22 01:00:52;;;;;;;32.98;6.45;;;9.20;99.90;;;;;;1817092;77;21148;-70
2021/03/22 01:03:28;;;;;;;37.55;6.10;;;9.20;99.90;;;;;;1821001;77;21164;-70
2021/03/22 01:05:57;;;;;;;32.53;5.85;;;9.20;99.90;;;;;;1852832;76;21271;-71
2021/03/22 01:08:27;;;;;;;34.70;6.08;;;9.20;99.90;;;;;;1816765;77;21668;-70
2021/03/22 01:11:07;;;;;;;37.00;6.25;;;9.20;99.90;;;;;;1781599;77;21169;-70
2021/03/22 01:13:40;;;;;;;40.12;5.70;;;9.20;99.90;;;;;;1812051;77;21733;-72
2021/03/22 01:16:08;;;;;;;33.25;5.97;;;9.20;99.90;;;;;;1815329;77;21181;-73
2021/03/22 01:18:39;;;;;;;29.35;5.85;;;9.10;99.90;;;;;;1816461;77;21537;-70
2021/03/22 01:21:12;;;;;;;29.40;5.65;;;9.10;99.90;;;;;;1812839;77;21604;-70
2021/03/22 01:23:39;;;;;;;29.48;5.53;;;9.20;99.90;;;;;;1816037;77;21172;-71
2021/03/22 01:26:10;;;;;;;32.03;5.55;;;9.20;99.90;;;;;;1820329;77;21514;-70
2021/03/22 01:28:38;;;;;;;33.60;6.47;;;9.20;99.90;;;;;;1815375;77;21281;-71
2021/03/22 01:31:06;;;;;;;27.75;6.10;;;9.20;99.90;;;;;;1815318;77;21114;-70
2021/03/22 01:33:38;;;;;;;25.37;6.20;;;9.20;99.90;;;;;;1818640;77;21545;-69
2021/03/22 01:36:08;;;;;;;34.20;6.28;;;9.20;99.90;;;;;;1815362;77;21110;-72
2021/03/22 01:38:35;;;;;;;36.08;7.03;;;9.20;99.90;;;;;;1813411;77;21195;-72
2021/03/22 01:41:14;;;;;;;31.42;6.00;;;9.10;99.90;;;;;;1815483;77;21051;-70
2021/03/22 01:43:54;;;;;;;38.83;5.85;;;9.20;99.90;;;;;;1816574;77;21141;-72
2021/03/22 01:46:23;;;;;;;51.73;7.60;;;9.20;99.90;;;;;;1812397;77;21108;-72
2021/03/22 01:48:51;;;;;;;34.33;6.58;;;9.20;99.90;;;;;;1814470;77;21879;-71
2021/03/22 01:51:20;;;;;;;33.83;6.35;;;9.20;99.90;;;;;;1818409;77;21175;-71
2021/03/22 01:53:49;;;;;;;45.17;7.47;;;9.10;99.90;;;;;;1815679;77;21230;-72
2021/03/22 01:56:25;;;;;;;29.85;6.58;;;9.20;99.90;;;;;;1821712;77;21171;-72
2021/03/22 01:58:53;;;;;;;30.97;6.33;;;9.20;99.90;;;;;;1833445;76;21129;-72
2021/03/22 02:01:23;;;;;;;33.33;6.60;;;9.10;99.90;;;;;;1836284;76;21113;-71
2021/03/22 02:03:52;;;;;;;28.83;6.17;;;9.10;99.90;;;;;;1839823;76;21112;-71
2021/03/22 02:06:19;;;;;;;33.50;6.47;;;9.10;99.90;;;;;;1834059;76;21074;-70
2021/03/22 02:08:48;;;;;;;37.83;6.50;;;9.10;99.90;;;;;;1838263;76;21631;-70
2021/03/22 02:11:25;;;;;;;33.63;6.22;;;9.10;99.90;;;;;;1834630;76;21519;-69
2021/03/22 02:13:55;;;;;;;28.73;6.40;;;9.10;99.90;;;;;;1830972;76;21233;-71
2021/03/22 02:16:26;;;;;;;33.80;6.37;;;9.10;99.90;;;;;;1830771;76;21159;-71
2021/03/22 02:19:29;;;;;;;31.73;6.10;;;9.10;99.90;;;;;;1836868;76;21586;-70
2021/03/22 02:22:12;;;;;;;33.75;6.28;;;9.10;99.90;;;;;;1833020;76;21584;-69
2021/03/22 02:24:58;;;;;;;32.15;5.87;;;9.10;99.90;;;;;;1838503;76;21600;-70
2021/03/22 02:28:03;;;;;;;36.45;6.72;;;9.00;99.90;;;;;;1840050;76;21112;-71
2021/03/22 02:30:49;;;;;;;30.25;6.70;;;9.00;99.90;;;;;;1840461;76;21191;-69
2021/03/22 02:33:45;;;;;;;27.45;6.47;;;9.00;99.90;;;;;;1835009;76;21120;-70
2021/03/22 02:36:18;;;;;;;28.87;6.35;;;9.00;99.90;;;;;;1834247;76;21062;-70
2021/03/22 02:38:49;;;;;;;27.55;5.75;;;8.90;99.90;;;;;;1836782;76;21158;-70
2021/03/22 02:41:19;;;;;;;30.77;6.60;;;9.00;99.90;;;;;;1835130;76;21181;-69
2021/03/22 02:44:07;;;;;;;31.57;7.22;;;9.00;99.90;;;;;;1841253;76;21135;-69
2021/03/22 02:46:37;;;;;;;40.25;6.95;;;9.00;99.90;;;;;;1839920;76;21066;-70
2021/03/22 02:49:07;;;;;;;32.78;6.12;;;9.10;99.90;;;;;;1836234;76;21555;-69
2021/03/22 02:51:54;;;;;;;38.58;7.22;;;9.10;99.90;;;;;;1837935;76;21116;-70
2021/03/22 02:54:50;;;;;;;36.73;7.00;;;9.10;99.90;;;;;;1831889;76;21105;-69
2021/03/22 02:57:27;;;;;;;26.95;6.05;;;9.10;99.90;;;;;;1833537;76;21109;-69
2021/03/22 03:00:00;;;;;;;34.85;7.22;;;9.10;99.90;;;;;;1834423;76;21264;-70
2021/03/22 03:02:31;;;;;;;31.77;6.75;;;9.10;99.90;;;;;;1834388;76;21124;-71
2021/03/22 03:05:01;;;;;;;28.60;6.50;;;9.10;99.90;;;;;;1836489;76;21185;-70
2021/03/22 03:07:29;;;;;;;31.70;6.35;;;9.10;99.90;;;;;;1837121;76;21136;-71
2021/03/22 03:09:56;;;;;;;30.17;7.17;;;9.10;99.90;;;;;;1838459;76;21571;-70
2021/03/22 03:12:26;;;;;;;31.77;6.87;;;9.10;99.90;;;;;;1837174;76;21160;-70
2021/03/22 03:14:56;;;;;;;29.35;6.40;;;9.10;99.90;;;;;;1837553;76;21183;-70
2021/03/22 03:17:25;;;;;;;33.15;6.95;;;9.10;99.90;;;;;;1838762;76;21095;-71
2021/03/22 03:19:54;;;;;;;34.80;6.65;;;9.10;99.90;;;;;;1837740;76;21213;-69
2021/03/22 03:22:23;;;;;;;29.48;7.92;;;9.10;99.90;;;;;;1835737;76;21061;-70
2021/03/22 03:24:51;;;;;;;28.05;7.15;;;9.10;99.90;;;;;;1840986;76;21152;-71
2021/03/22 03:27:19;;;;;;;33.80;7.30;;;9.10;99.90;;;;;;1836492;76;21151;-70
2021/03/22 03:29:47;;;;;;;28.67;7.15;;;9.10;99.90;;;;;;1838926;76;21144;-71
2021/03/22 03:32:17;;;;;;;38.95;7.08;;;9.10;99.90;;;;;;1835006;76;22005;-71
2021/03/22 03:34:45;;;;;;;38.67;7.72;;;9.10;99.90;;;;;;1832537;76;21676;-70
2021/03/22 03:37:12;;;;;;;33.65;6.92;;;9.10;99.90;;;;;;1838636;76;21115;-71
2021/03/22 03:39:40;;;;;;;30.90;7.37;;;9.10;99.90;;;;;;1837641;76;21094;-70
2021/03/22 03:42:10;;;;;;;30.40;6.67;;;9.00;99.90;;;;;;1837988;76;21022;-71
2021/03/22 03:44:39;;;;;;;29.95;7.20;;;9.00;99.90;;;;;;1812116;76;21030;-71
2021/03/22 03:47:07;;;;;;;30.70;7.40;;;9.00;99.90;;;;;;1837599;76;21155;-70
2021/03/22 03:49:35;;;;;;;33.50;8.03;;;9.00;99.90;;;;;;1839487;76;21125;-69
2021/03/22 03:52:05;;;;;;;29.65;7.60;;;9.00;99.90;;;;;;1840198;76;21550;-70
2021/03/22 03:54:33;;;;;;;33.95;7.75;;;9.00;99.90;;;;;;1840073;76;21568;-71
2021/03/22 03:57:00;;;;;;;27.17;6.83;;;9.00;99.90;;;;;;1839594;76;21170;-71
2021/03/22 03:59:28;;;;;;;32.13;7.60;;;9.00;99.90;;;;;;1843645;76;21135;-71
2021/03/22 04:01:55;;;;;;;25.85;6.85;;;9.10;99.90;;;;;;1839524;76;21109;-69
2021/03/22 04:04:23;;;;;;;27.25;7.05;;;9.10;99.90;;;;;;1834182;76;21086;-70
2021/03/22 04:06:51;;;;;;;34.35;8.05;;;9.10;99.90;;;;;;1838849;76;21231;-70
2021/03/22 04:09:20;;;;;;;35.83;7.67;;;9.10;99.90;;;;;;1834580;76;21114;-71
2021/03/22 04:11:50;;;;;;;27.37;6.60;;;9.00;99.90;;;;;;1839123;76;21219;-70
2021/03/22 04:14:21;;;;;;;28.00;6.85;;;9.10;99.90;;;;;;1837652;76;21120;-72
2021/03/22 04:16:50;;;;;;;31.02;6.80;;;9.10;99.90;;;;;;1834207;76;21077;-71
2021/03/22 04:19:21;;;;;;;34.38;7.67;;;9.00;99.90;;;;;;1838498;76;21138;-70
2021/03/22 04:21:49;;;;;;;33.98;7.58;;;9.10;99.90;;;;;;1836543;76;21105;-71
2021/03/22 04:24:18;;;;;;;36.60;6.62;;;9.00;99.90;;;;;;1838929;76;21085;-71
2021/03/22 04:26:46;;;;;;;30.10;6.97;;;9.00;99.90;;;;;;1838486;76;21547;-70
2021/03/22 04:29:13;;;;;;;31.45;6.37;;;9.00;99.90;;;;;;1841581;76;21128;-70
2021/03/22 04:31:41;;;;;;;30.30;6.03;;;9.00;99.90;;;;;;1836851;76;21120;-70
2021/03/22 04:34:10;;;;;;;31.25;7.12;;;9.00;99.90;;;;;;1836334;76;21477;-70
2021/03/22 04:36:38;;;;;;;26.23;6.83;;;9.00;99.90;;;;;;1838956;76;21444;-71
2021/03/22 04:39:09;;;;;;;25.77;6.95;;;9.00;99.90;;;;;;1834744;75;21590;-70
2021/03/22 04:41:38;;;;;;;33.42;6.40;;;9.00;99.90;;;;;;1840130;76;21173;-70
2021/03/22 04:44:07;;;;;;;31.33;6.83;;;8.90;99.90;;;;;;1832553;76;21092;-70
2021/03/22 04:46:34;;;;;;;31.80;7.17;;;8.90;99.90;;;;;;1838510;76;21504;-70
2021/03/22 04:49:02;;;;;;;26.85;6.50;;;8.90;99.90;;;;;;1839656;76;21657;-69
2021/03/22 04:51:30;;;;;;;27.67;6.30;;;8.90;99.90;;;;;;1835545;76;21116;-70
2021/03/22 04:53:59;;;;;;;31.82;7.15;;;8.90;99.90;;;;;;1833988;76;21097;-70
2021/03/22 04:56:26;;;;;;;27.67;6.37;;;8.80;99.90;;;;;;1838109;76;21292;-70
2021/03/22 04:58:54;;;;;;;31.77;6.72;;;8.80;99.90;;;;;;1833947;76;21136;-70
2021/03/22 05:01:21;;;;;;;28.17;6.15;;;8.80;99.90;;;;;;1839699;76;21167;-69
2021/03/22 05:03:49;;;;;;;22.67;6.17;;;8.80;99.90;;;;;;1840055;76;21563;-70
2021/03/22 05:06:16;;;;;;;31.97;7.75;;;8.80;99.90;;;;;;1837618;76;22526;-71
2021/03/22 05:08:44;;;;;;;32.20;7.12;;;8.80;99.90;;;;;;1840020;76;22151;-70
2021/03/22 05:11:11;;;;;;;29.95;6.00;;;8.80;99.90;;;;;;1837134;76;21210;-71
2021/03/22 05:13:39;;;;;;;29.48;6.35;;;8.80;99.90;;;;;;1839498;76;21129;-70
2021/03/22 05:16:06;;;;;;;22.40;6.33;;;8.80;99.90;;;;;;1839809;76;21171;-70
2021/03/22 05:18:34;;;;;;;25.62;6.58;;;8.90;99.90;;;;;;1837439;76;21101;-70
2021/03/22 05:21:05;;;;;;;26.25;6.58;;;8.90;99.90;;;;;;1836185;76;21101;-71
2021/03/22 05:23:34;;;;;;;29.45;6.03;;;8.90;99.90;;;;;;1838075;76;21634;-70
2021/03/22 05:26:02;;;;;;;28.45;6.60;;;8.90;99.90;;;;;;1835773;76;21129;-70
2021/03/22 05:28:31;;;;;;;26.12;6.10;;;8.90;99.90;;;;;;1839792;76;21041;-69
2021/03/22 05:31:00;;;;;;;25.92;6.55;;;8.90;99.90;;;;;;1838389;76;21576;-70
2021/03/22 05:33:27;;;;;;;31.80;6.03;;;8.90;99.90;;;;;;1836888;76;21093;-70
2021/03/22 05:36:00;;;;;;;22.87;5.72;;;8.90;99.90;;;;;;1838652;76;21164;-70
2021/03/22 05:38:29;;;;;;;27.05;6.45;;;8.90;99.90;;;;;;1839361;76;21144;-70
2021/03/22 05:41:02;;;;;;;29.23;6.53;;;8.90;99.90;;;;;;1838052;76;21033;-71
2021/03/22 05:43:44;;;;;;;24.57;6.67;;;8.90;99.90;;;;;;1836323;76;21105;-70
2021/03/22 05:46:36;;;;;;;26.65;6.33;;;8.90;99.90;;;;;;1838834;76;21194;-70
2021/03/22 05:49:36;;;;;;;25.75;5.58;;;8.90;99.90;;;;;;1841486;76;21098;-69
2021/03/22 05:52:13;;;;;;;27.77;6.03;;;8.90;99.90;;;;;;1835729;76;21255;-70
2021/03/22 05:55:09;;;;;;;29.90;6.78;;;8.90;99.90;;;;;;1840974;76;21578;-71
2021/03/22 05:57:43;;;;;;;24.27;6.08;;;8.90;99.90;;;;;;1840915;76;22328;-70
2021/03/22 06:00:28;;;;;;;30.50;6.47;;;8.90;99.90;;;;;;1839281;76;21101;-71
2021/03/22 06:03:08;;;;;;;28.73;5.90;;;8.90;99.90;;;;;;1836762;76;21097;-70
2021/03/22 06:05:41;;;;;;;24.87;6.30;;;9.00;99.90;;;;;;1838337;76;22523;-69
2021/03/22 06:08:29;;;;;;;23.80;5.70;;;9.00;99.90;;;;;;1833612;76;21179;-74
2021/03/22 06:10:58;;;;;;;19.90;6.12;;;9.00;99.90;;;;;;1837309;76;21141;-68
2021/03/22 06:13:31;;;;;;;24.00;6.83;;;9.00;99.90;;;;;;1837120;76;21250;-69
2021/03/22 06:16:08;;;;;;;22.50;6.17;;;9.10;99.90;;;;;;1837470;76;21664;-70
2021/03/22 06:18:38;;;;;;;20.52;5.62;;;9.10;99.90;;;;;;1832558;76;21053;-69
2021/03/22 06:21:16;;;;;;;24.45;6.03;;;9.10;99.90;;;;;;1835942;76;21500;-68
2021/03/22 06:23:46;;;;;;;20.45;5.40;;;9.10;99.90;;;;;;1840579;76;21133;-68
2021/03/22 06:26:35;;;;;;;21.15;5.70;;;9.20;99.90;;;;;;1836134;76;21152;-68
2021/03/22 06:29:14;;;;;;;19.82;5.37;;;9.20;99.90;;;;;;1807307;76;22143;-67
2021/03/22 06:31:42;;;;;;;21.37;5.12;;;9.20;99.90;;;;;;1839187;76;21093;-69
2021/03/22 06:34:13;;;;;;;20.77;5.40;;;9.20;99.90;;;;;;1837492;76;21219;-67
2021/03/22 06:36:41;;;;;;;20.60;5.40;;;9.20;99.90;;;;;;1838576;76;22135;-68
2021/03/22 06:39:11;;;;;;;24.02;7.10;;;9.30;99.90;;;;;;1837312;76;21280;-70
2021/03/22 06:41:54;;;;;;;18.55;5.55;;;9.30;99.90;;;;;;1836408;76;21574;-69
2021/03/22 06:44:36;;;;;;;24.00;6.05;;;9.30;99.90;;;;;;1832664;76;21195;-71
2021/03/22 06:47:07;;;;;;;16.62;5.37;;;9.30;99.90;;;;;;1831925;76;21088;-71
2021/03/22 06:49:40;;;;;;;23.00;5.42;;;9.30;99.90;;;;;;1834492;76;21156;-73
2021/03/22 06:52:11;;;;;;;19.37;5.42;;;9.40;99.90;;;;;;1837982;76;21159;-70
2021/03/22 06:54:51;;;;;;;20.10;5.10;;;9.40;99.90;;;;;;1842273;76;21113;-72
2021/03/22 06:57:24;;;;;;;28.02;5.95;;;9.40;99.90;;;;;;1835687;76;21211;-72
2021/03/22 07:00:11;;;;;;;15.58;4.42;;;9.40;99.90;;;;;;1834635;76;21156;-70
2021/03/22 07:02:54;;;;;;;19.90;5.28;;;9.50;99.90;;;;;;1831022;76;21093;-69
2021/03/22 07:05:28;;;;;;;15.45;4.47;;;9.40;99.90;;;;;;1838810;76;21132;-70
2021/03/22 07:08:10;;;;;;;21.60;4.65;;;9.50;99.90;;;;;;1836159;76;21116;-67
2021/03/22 07:10:43;;;;;;;18.55;4.30;;;9.50;99.90;;;;;;1832555;76;21948;-66
2021/03/22 07:13:20;;;;;;;14.95;3.42;;;9.50;99.90;;;;;;1836538;76;21583;-66
2021/03/22 07:15:49;;;;;;;19.95;4.25;;;9.60;99.90;;;;;;1835150;76;21184;-66
2021/03/22 07:18:26;;;;;;;12.00;2.90;;;9.60;99.90;;;;;;1842550;76;21135;-66
2021/03/22 07:20:59;;;;;;;12.00;3.35;;;9.60;99.90;;;;;;1837084;76;21244;-66
2021/03/22 07:23:30;;;;;;;13.72;3.42;;;9.60;99.90;;;;;;1841512;76;21049;-66
2021/03/22 07:26:17;;;;;;;14.83;3.27;;;9.60;99.90;;;;;;1838846;76;21112;-66
2021/03/22 07:29:04;;;;;;;14.20;3.05;;;9.60;99.90;;;;;;1841799;76;21109;-67
2021/03/22 07:31:37;;;;;;;12.80;2.95;;;9.60;99.90;;;;;;1843612;76;21108;-69
2021/03/22 07:34:36;;;;;;;12.25;3.02;;;9.60;99.90;;;;;;1814394;76;21054;-69
2021/03/22 07:37:18;;;;;;;11.45;2.50;;;9.70;99.90;;;;;;1835742;76;21811;-69
2021/03/22 07:39:51;;;;;;;11.30;2.00;;;9.70;99.90;;;;;;1838324;76;21165;-69
2021/03/22 07:42:25;;;;;;;11.60;2.12;;;9.70;99.90;;;;;;1834922;76;21105;-69
2021/03/22 07:45:14;;;;;;;13.15;2.22;;;9.70;99.90;;;;;;1835151;76;21035;-69
2021/03/22 07:48:01;;;;;;;12.15;2.33;;;9.70;99.90;;;;;;1837493;76;21069;-69
2021/03/22 07:50:43;;;;;;;13.53;2.65;;;9.70;99.90;;;;;;1835659;76;21649;-69
2021/03/22 07:53:14;;;;;;;11.88;2.87;;;9.70;99.90;;;;;;1838501;76;21186;-70
2021/03/22 07:56:14;;;;;;;13.08;2.58;;;9.70;99.90;;;;;;1840765;76;21218;-69
2021/03/22 07:58:45;;;;;;;13.68;2.95;;;9.70;99.90;;;;;;1841642;76;21633;-69
2021/03/22 08:01:33;;;;;;;14.93;2.85;;;9.70;99.90;;;;;;1834940;76;21128;-71
2021/03/22 08:04:19;;;;;;;11.60;2.70;;;9.70;99.90;;;;;;1832154;76;22351;-72
2021/03/22 08:07:17;;;;;;;9.83;2.27;;;9.80;99.90;;;;;;1837371;76;21106;-71
2021/03/22 08:10:03;;;;;;;7.90;1.92;;;9.90;99.90;;;;;;1835509;76;21590;-68
2021/03/22 08:12:43;;;;;;;10.18;3.20;;;9.90;99.90;;;;;;1836915;76;21136;-72
2021/03/22 08:15:33;;;;;;;7.10;1.77;;;10.00;99.90;;;;;;1833749;76;21222;-71
2021/03/22 08:18:22;;;;;;;9.18;2.65;;;10.00;99.90;;;;;;1833576;76;21602;-71
2021/03/22 08:20:52;;;;;;;6.65;1.98;;;10.00;99.90;;;;;;1840536;75;21133;-72
2021/03/22 08:23:29;;;;;;;11.75;1.50;;;10.00;99.90;;;;;;1840364;76;21046;-74
2021/03/22 08:25:59;;;;;;;6.67;1.52;;;10.10;99.90;;;;;;1831772;76;21269;-71
2021/03/22 08:28:42;;;;;;;6.78;1.60;;;10.10;99.90;;;;;;1836559;76;21171;-70
2021/03/22 08:31:28;;;;;;;;;;;10.20;99.90;;;;;;1838944;76;21175;-69
2021/03/22 08:34:01;;;;;;;6.58;1.20;;;10.20;99.90;;;;;;1836036;76;20174;-71
2021/03/22 08:36:38;;;;;;;7.85;1.70;;;10.20;99.90;;;;;;1835056;76;21627;-72
2021/03/22 08:39:20;;;;;;;9.78;1.42;;;10.20;99.90;;;;;;1831820;76;21078;-71
2021/03/22 08:41:51;;;;;;;5.53;1.40;;;10.30;99.90;;;;;;1839712;76;21163;-72
2021/03/22 08:44:27;;;;;;;8.80;1.85;;;10.30;99.90;;;;;;1835129;76;21135;-70
2021/03/22 08:47:09;;;;;;;6.22;1.55;;;10.30;99.90;;;;;;1838837;76;21186;-70
2021/03/22 08:49:49;;;;;;;6.62;1.65;;;10.40;99.90;;;;;;1836892;76;21164;-72
2021/03/22 08:52:31;;;;;;;7.65;1.80;;;10.40;99.90;;;;;;1828996;76;21053;-70
2021/03/22 08:55:02;;;;;;;6.50;1.42;;;10.50;99.90;;;;;;1837395;76;21566;-71
2021/03/22 08:57:32;;;;;;;6.58;1.22;;;10.50;99.90;;;;;;1837245;76;21403;-70
2021/03/22 09:00:12;;;;;;;7.28;1.32;;;10.50;99.90;;;;;;1834996;76;21161;-70
2021/03/22 09:02:42;;;;;;;7.87;1.40;;;10.60;99.90;;;;;;1832277;76;21470;-70
2021/03/22 09:05:21;;;;;;;5.33;1.12;;;10.60;99.90;;;;;;1838815;76;21225;-70
2021/03/22 09:07:49;;;;;;;4.05;1.30;;;10.50;99.90;;;;;;1837985;76;21155;-70
2021/03/22 09:10:32;;;;;;;4.65;1.40;;;10.50;99.90;;;;;;1835557;76;21108;-69
2021/03/22 09:13:24;;;;;;;5.97;1.35;;;10.50;99.90;;;;;;1835199;76;21124;-71
2021/03/22 09:16:03;;;;;;;5.92;1.30;;;10.50;99.90;;;;;;1840766;76;22041;-71
2021/03/22 09:18:31;;;;;;;4.15;1.12;;;10.50;99.90;;;;;;1833998;76;21221;-70
2021/03/22 09:23:52;;;;;;;4.12;0.90;;;10.60;99.90;;;;;;1888119;74;21693;-70
2021/03/22 09:26:22;;;;;;;2.98;0.78;;;10.60;99.90;;;;;;1888034;74;22157;-70
2021/03/22 09:28:56;;;;;;;3.62;0.80;;;10.70;99.90;;;;;;1878086;74;21105;-70
2021/03/22 09:31:28;;;;;;;2.83;0.80;;;10.70;99.90;;;;;;1883662;74;21160;-70
2021/03/22 09:34:02;;;;;;;3.87;1.57;;;10.80;99.90;;;;;;1881386;74;21050;-70
2021/03/22 09:36:41;;;;;;;4.47;1.42;;;10.80;99.90;;;;;;1881255;74;21140;-70
2021/03/22 09:39:18;;;;;;;3.50;1.32;;;10.80;99.90;;;;;;1884907;74;21237;-72
2021/03/22 09:41:57;;;;;;;4.08;0.95;;;10.70;99.90;;;;;;1889378;74;21075;-73
2021/03/22 09:44:28;;;;;;;5.40;1.00;;;10.70;99.90;;;;;;1883124;74;21144;-73
2021/03/22 09:47:15;;;;;;;6.10;1.10;;;10.60;99.90;;;;;;1886326;74;21118;-72
2021/03/22 09:50:16;;;;;;;4.33;1.10;;;10.60;99.90;;;;;;1886991;74;21413;-70
2021/03/22 09:52:56;;;;;;;4.08;1.17;;;10.60;99.90;;;;;;1888239;74;21067;-72
2021/03/22 09:55:29;;;;;;;9.53;1.50;;;10.70;99.90;;;;;;1883050;74;21109;-71
2021/03/22 09:57:59;;;;;;;3.80;1.57;;;10.60;99.90;;;;;;1888592;74;21148;-71
2021/03/22 10:00:35;;;;;;;5.08;1.50;;;10.60;99.90;;;;;;1891721;74;21178;-70
2021/03/22 10:03:09;;;;;;;4.80;1.50;;;10.70;99.90;;;;;;1878752;74;21106;-71
2021/03/22 10:05:55;;;;;;;4.47;1.57;;;10.70;99.90;;;;;;1853173;74;21110;-69
2021/03/22 10:08:29;;;;;;;9.53;1.90;;;10.70;99.90;;;;;;1885345;74;21126;-69
2021/03/22 10:11:03;;;;;;;7.00;1.82;;;10.70;99.90;;;;;;1873175;74;21656;-70
2021/03/22 10:13:48;;;;;;;5.37;2.00;;;10.70;99.90;;;;;;1887135;74;21087;-70
2021/03/22 10:16:24;;;;;;;4.70;1.92;;;10.70;99.90;;;;;;1885950;74;21450;-70
2021/03/22 10:19:01;;;;;;;11.38;2.40;;;10.70;99.90;;;;;;1885344;74;21772;-70
2021/03/22 10:21:33;;;;;;;9.35;1.90;;;10.70;99.90;;;;;;1883969;74;21121;-70
2021/03/22 10:24:08;;;;;;;7.95;1.90;;;10.70;99.90;;;;;;1886610;74;21196;-69
2021/03/22 10:26:44;;;;;;;10.10;2.22;;;10.80;99.90;;;;;;1886986;74;21603;-70
2021/03/22 10:29:24;;;;;;;7.97;2.12;;;10.80;99.90;;;;;;1883144;74;21059;-70
2021/03/22 10:32:00;;;;;;;11.35;2.27;;;10.80;99.90;;;;;;1886790;74;21161;-70
2021/03/22 10:34:34;;;;;;;10.03;2.08;;;10.80;99.90;;;;;;1884023;74;21101;-74
2021/03/22 10:37:07;;;;;;;8.68;2.47;;;10.70;99.90;;;;;;1886016;74;21083;-70
2021/03/22 10:39:38;;;;;;;10.53;1.98;;;10.80;99.90;;;;;;1882288;73;21145;-70
2021/03/22 10:42:08;;;;;;;9.93;2.17;;;10.70;99.90;;;;;;1889621;73;21373;-68
2021/03/22 10:44:37;;;;;;;7.80;1.80;;;10.80;99.90;;;;;;1850953;74;21087;-71
2021/03/22 10:47:08;;;;;;;13.65;2.58;;;10.80;99.90;;;;;;1885543;74;21172;-69
2021/03/22 10:49:35;;;;;;;7.72;1.98;;;10.90;99.90;;;;;;1883170;74;21274;-71
2021/03/22 10:52:04;;;;;;;11.45;2.95;;;10.90;99.90;;;;;;1885832;74;21118;-70
2021/03/22 10:54:46;;;;;;;9.50;2.58;;;11.00;99.90;;;;;;1884609;74;21126;-70
2021/03/22 10:57:31;;;;;;;8.83;1.65;;;11.10;99.90;;;;;;1885046;74;21612;-71
2021/03/22 11:00:02;;;;;;;5.75;1.80;;;11.10;99.90;;;;;;1888853;74;21133;-70
2021/03/22 11:02:39;;;;;;;11.57;1.90;;;11.10;99.90;;;;;;1885536;74;21094;-70
2021/03/22 11:05:12;;;;;;;10.40;1.72;;;11.10;99.90;;;;;;1880254;74;21178;-69
2021/03/22 11:07:40;;;;;;;7.85;2.35;;;11.10;99.90;;;;;;1885900;74;21615;-70
2021/03/22 11:10:17;;;;;;;9.43;1.90;;;11.10;99.90;;;;;;1884035;74;21192;-71
2021/03/22 11:12:47;;;;;;;7.50;1.45;;;11.20;99.90;;;;;;1883854;74;21129;-71
2021/03/22 11:15:21;;;;;;;7.42;1.70;;;11.30;99.90;;;;;;1881773;74;21156;-71
2021/03/22 11:17:50;;;;;;;9.70;2.30;;;11.30;99.90;;;;;;1884532;74;21180;-71
2021/03/22 11:20:19;;;;;;;5.85;1.80;;;11.30;99.90;;;;;;1887630;73;21098;-71
2021/03/22 11:22:49;;;;;;;6.12;1.80;;;11.30;99.90;;;;;;1884033;74;21482;-71
2021/03/22 11:25:37;;;;;;;3.83;1.87;;;11.40;99.90;;;;;;1886953;74;21116;-71
2021/03/22 11:28:08;;;;;;;10.03;2.27;;;11.40;99.90;;;;;;1884480;74;21568;-72
2021/03/22 11:30:44;;;;;;;7.25;3.12;;;11.30;99.90;;;;;;1885595;74;21067;-71
2021/03/22 11:33:17;;;;;;;10.75;3.27;;;11.30;99.90;;;;;;1883179;74;21102;-71
2021/03/22 11:35:49;;;;;;;8.15;3.20;;;11.30;99.90;;;;;;1883639;74;21093;-71
2021/03/22 11:38:22;;;;;;;7.72;3.00;;;11.40;99.90;;;;;;1887253;74;21071;-71
2021/03/22 11:40:50;;;;;;;8.70;2.98;;;11.30;99.90;;;;;;1872550;74;21095;-71
2021/03/22 11:43:31;;;;;;;10.32;3.37;;;11.30;99.90;;;;;;1884407;74;21037;-71
2021/03/22 11:46:17;;;;;;;9.40;4.47;;;11.30;99.90;;;;;;1890725;74;21591;-71
2021/03/22 11:48:44;;;;;;;7.28;4.17;;;11.20;99.90;;;;;;1875599;74;21493;-72
2021/03/22 11:51:13;;;;;;;6.35;3.77;;;11.20;99.90;;;;;;1889979;74;21028;-71
2021/03/22 11:54:02;;;;;;;8.60;3.72;;;11.20;99.90;;;;;;1882426;74;21082;-71
2021/03/22 11:56:32;;;;;;;5.33;3.27;;;11.30;99.90;;;;;;1886618;74;21165;-71
2021/03/22 11:59:23;;;;;;;9.73;3.62;;;11.20;99.90;;;;;;1884275;74;21133;-72
2021/03/22 12:01:43;;;;;;;6.50;3.27;;;11.20;99.90;;;;;;1882472;74;21192;-71
2021/03/22 12:04:14;;;;;;;7.03;3.40;;;11.30;99.90;;;;;;1884835;74;21634;-72
2021/03/22 12:07:06;;;;;;;8.30;3.20;;;11.30;99.90;;;;;;1881742;74;21099;-71
2021/03/22 12:09:35;;;;;;;5.55;2.60;;;11.30;99.90;;;;;;1891462;74;21176;-73
2021/03/22 12:12:06;;;;;;;8.28;2.33;;;11.30;99.90;;;;;;1881499;74;21180;-72
2021/03/22 12:14:34;;;;;;;6.10;2.30;;;11.30;99.90;;;;;;1889306;74;21484;-72
2021/03/22 12:17:07;;;;;;;5.78;2.33;;;11.30;99.90;;;;;;1889489;74;21154;-75
2021/03/22 12:19:41;;;;;;;10.88;2.75;;;11.30;99.90;;;;;;1892416;74;21140;-69
2021/03/22 12:22:11;;;;;;;3.77;1.82;;;11.30;99.90;;;;;;1890797;74;21062;-71
2021/03/22 12:24:39;;;;;;;5.70;1.90;;;11.30;99.90;;;;;;1892187;74;21143;-72
2021/03/22 12:27:12;;;;;;;3.95;1.82;;;11.30;99.90;;;;;;1888928;74;22184;-72
2021/03/22 12:29:40;;;;;;;5.47;2.00;;;11.20;99.90;;;;;;1888787;74;21118;-71
2021/03/22 12:32:08;;;;;;;4.67;1.52;;;11.20;99.90;;;;;;1886931;74;21249;-69
2021/03/22 12:34:36;;;;;;;7.85;1.72;;;11.20;99.90;;;;;;1892370;74;21524;-69
2021/03/22 12:37:03;;;;;;;6.78;1.40;;;11.20;99.90;;;;;;1888770;74;21059;-69
2021/03/22 12:39:36;;;;;;;8.88;1.32;;;11.30;99.90;;;;;;1883750;74;21122;-69
2021/03/22 12:42:06;;;;;;;6.95;1.35;;;11.30;99.90;;;;;;1881045;74;21126;-69
2021/03/22 12:44:34;;;;;;;9.25;1.42;;;11.30;99.90;;;;;;1885005;74;21118;-69
2021/03/22 12:47:02;;;;;;;9.23;1.77;;;11.30;99.90;;;;;;1885541;74;21162;-70
2021/03/22 12:49:29;;;;;;;5.97;1.50;;;11.30;99.90;;;;;;1883832;74;21126;-69
2021/03/22 12:51:57;;;;;;;5.40;1.42;;;11.30;99.90;;;;;;1882521;74;21201;-69
2021/03/22 12:54:24;;;;;;;4.75;1.45;;;11.40;99.90;;;;;;1883260;74;21083;-69
2021/03/22 12:56:53;;;;;;;5.05;1.27;;;11.40;99.90;;;;;;1880927;74;21231;-68
2021/03/22 12:59:39;;;;;;;8.33;1.35;;;11.30;99.90;;;;;;1884677;74;21386;-68
2021/03/22 13:02:12;;;;;;;7.28;1.80;;;11.40;99.90;;;;;;1887938;74;21039;-68
2021/03/22 13:04:40;;;;;;;6.15;1.37;;;11.30;99.90;;;;;;1882754;74;21556;-67
2021/03/22 13:07:08;;;;;;;6.05;1.50;;;11.30;99.90;;;;;;1886467;74;21266;-68
2021/03/22 13:09:38;;;;;;;4.87;1.47;;;11.30;99.90;;;;;;1889330;74;22134;-68
2021/03/22 13:12:08;;;;;;;10.25;1.45;;;11.30;99.90;;;;;;1887976;74;21160;-68
2021/03/22 13:14:35;;;;;;;8.48;1.82;;;11.30;99.90;;;;;;1888569;74;22361;-68
2021/03/22 13:17:03;;;;;;;7.17;1.60;;;11.30;99.90;;;;;;1877008;74;21184;-67
2021/03/22 13:19:31;;;;;;;7.17;1.65;;;11.20;99.90;;;;;;1880129;74;21623;-68
2021/03/22 13:21:59;;;;;;;6.35;1.32;;;11.20;99.90;;;;;;1892623;74;21200;-68